sensor_id;sensor_type;location;lat;lon;timestamp;P1;durP1;ratioP1;P2;durP2;ratioP2
28605;SDS011;46498;49.968;7.754;2023-04-24T00:04:04;3.55;;;1.75;;
28605;SDS011;46498;49.968;7.754;2023-04-24T00:09:05;3.40;;;2.00;;
28605;SDS011;46498;49.968;7.754;2023-04-24T00:14:06;3.58;;;2.10;;
28605;SDS011;46498;49.968;7.754;2023-04-24T00:19:07;5.78;;;2.22;;
28605;SDS011;46498;49.968;7.754;2023-04-24T00:24:07;7.97;;;2.55;;
28605;SDS011;46498;49.968;7.754;2023-04-24T00:29:11;4.22;;;2.20;;
28605;SDS011;46498;49.968;7.754;2023-04-24T00:34:12;4.90;;;1.85;;
28605;SDS011;46498;49.968;7.754;2023-04-24T00:39:13;4.65;;;1.92;;
28605;SDS011;46498;49.968;7.754;2023-04-24T00:44:14;2.78;;;1.65;;
28605;SDS011;46498;49.968;7.754;2023-04-24T00:49:15;2.90;;;1.77;;
28605;SDS011;46498;49.968;7.754;2023-04-24T00:54:17;2.90;;;1.77;;
28605;SDS011;46498;49.968;7.754;2023-04-24T00:59:18;4.45;;;2.20;;
28605;SDS011;46498;49.968;7.754;2023-04-24T01:04:19;3.80;;;2.40;;
28605;SDS011;46498;49.968;7.754;2023-04-24T01:09:22;5.03;;;2.20;;
28605;SDS011;46498;49.968;7.754;2023-04-24T01:14:24;7.72;;;2.30;;
28605;SDS011;46498;49.968;7.754;2023-04-24T01:19:25;3.67;;;1.80;;
28605;SDS011;46498;49.968;7.754;2023-04-24T01:24:26;5.03;;;2.22;;
28605;SDS011;46498;49.968;7.754;2023-04-24T01:29:27;3.80;;;1.20;;
28605;SDS011;46498;49.968;7.754;2023-04-24T01:34:28;1.87;;;1.37;;
28605;SDS011;46498;49.968;7.754;2023-04-24T01:39:29;5.18;;;1.40;;
28605;SDS011;46498;49.968;7.754;2023-04-24T01:44:30;5.93;;;1.02;;
28605;SDS011;46498;49.968;7.754;2023-04-24T01:49:31;2.30;;;1.08;;
28605;SDS011;46498;49.968;7.754;2023-04-24T01:54:33;3.17;;;1.25;;
28605;SDS011;46498;49.968;7.754;2023-04-24T01:59:35;6.30;;;1.27;;
28605;SDS011;46498;49.968;7.754;2023-04-24T02:04:39;6.37;;;0.95;;
28605;SDS011;46498;49.968;7.754;2023-04-24T02:09:41;2.75;;;1.00;;
28605;SDS011;46498;49.968;7.754;2023-04-24T02:14:42;3.97;;;1.10;;
28605;SDS011;46498;49.968;7.754;2023-04-24T02:19:44;3.92;;;1.33;;
28605;SDS011;46498;49.968;7.754;2023-04-24T02:24:46;4.68;;;1.30;;
28605;SDS011;46498;49.968;7.754;2023-04-24T02:29:49;5.40;;;1.75;;
28605;SDS011;46498;49.968;7.754;2023-04-24T02:34:50;3.67;;;1.48;;
28605;SDS011;46498;49.968;7.754;2023-04-24T02:39:50;4.35;;;1.60;;
28605;SDS011;46498;49.968;7.754;2023-04-24T02:44:52;6.28;;;2.20;;
28605;SDS011;46498;49.968;7.754;2023-04-24T02:49:52;5.15;;;1.87;;
28605;SDS011;46498;49.968;7.754;2023-04-24T02:54:54;3.10;;;2.00;;
28605;SDS011;46498;49.968;7.754;2023-04-24T02:59:55;2.95;;;1.83;;
28605;SDS011;46498;49.968;7.754;2023-04-24T03:04:56;6.80;;;2.60;;
28605;SDS011;46498;49.968;7.754;2023-04-24T03:09:57;5.05;;;2.70;;
28605;SDS011;46498;49.968;7.754;2023-04-24T03:14:58;4.68;;;2.50;;
28605;SDS011;46498;49.968;7.754;2023-04-24T03:20:00;5.20;;;2.45;;
28605;SDS011;46498;49.968;7.754;2023-04-24T03:25:01;6.97;;;2.67;;
28605;SDS011;46498;49.968;7.754;2023-04-24T03:30:02;4.93;;;2.75;;
28605;SDS011;46498;49.968;7.754;2023-04-24T03:35:18;3.42;;;2.53;;
28605;SDS011;46498;49.968;7.754;2023-04-24T03:40:19;6.85;;;3.28;;
28605;SDS011;46498;49.968;7.754;2023-04-24T03:45:20;8.82;;;3.20;;
28605;SDS011;46498;49.968;7.754;2023-04-24T03:50:23;5.57;;;3.47;;
28605;SDS011;46498;49.968;7.754;2023-04-24T03:55:27;9.45;;;3.67;;
28605;SDS011;46498;49.968;7.754;2023-04-24T04:00:28;8.48;;;3.03;;
28605;SDS011;46498;49.968;7.754;2023-04-24T04:05:52;6.57;;;3.58;;
28605;SDS011;46498;49.968;7.754;2023-04-24T04:10:54;8.80;;;3.83;;
28605;SDS011;46498;49.968;7.754;2023-04-24T04:15:57;9.30;;;4.50;;
28605;SDS011;46498;49.968;7.754;2023-04-24T04:20:58;6.82;;;4.07;;
28605;SDS011;46498;49.968;7.754;2023-04-24T04:25:59;11.45;;;4.55;;
28605;SDS011;46498;49.968;7.754;2023-04-24T04:31:10;8.57;;;4.20;;
28605;SDS011;46498;49.968;7.754;2023-04-24T04:36:12;8.70;;;4.78;;
28605;SDS011;46498;49.968;7.754;2023-04-24T04:41:16;10.50;;;5.03;;
28605;SDS011;46498;49.968;7.754;2023-04-24T04:46:19;8.50;;;4.75;;
28605;SDS011;46498;49.968;7.754;2023-04-24T04:51:35;7.18;;;4.80;;
28605;SDS011;46498;49.968;7.754;2023-04-24T04:56:36;10.25;;;5.55;;
28605;SDS011;46498;49.968;7.754;2023-04-24T05:01:38;9.40;;;4.65;;
28605;SDS011;46498;49.968;7.754;2023-04-24T05:06:40;7.00;;;3.92;;
28605;SDS011;46498;49.968;7.754;2023-04-24T05:11:42;9.00;;;4.45;;
28605;SDS011;46498;49.968;7.754;2023-04-24T05:16:44;7.40;;;4.65;;
28605;SDS011;46498;49.968;7.754;2023-04-24T05:21:49;9.07;;;4.93;;
28605;SDS011;46498;49.968;7.754;2023-04-24T05:26:50;8.02;;;4.82;;
28605;SDS011;46498;49.968;7.754;2023-04-24T05:31:54;13.77;;;5.70;;
28605;SDS011;46498;49.968;7.754;2023-04-24T05:36:56;11.23;;;6.12;;
28605;SDS011;46498;49.968;7.754;2023-04-24T05:41:57;11.40;;;5.47;;
28605;SDS011;46498;49.968;7.754;2023-04-24T05:46:58;12.25;;;7.12;;
28605;SDS011;46498;49.968;7.754;2023-04-24T05:52:00;13.57;;;7.70;;
28605;SDS011;46498;49.968;7.754;2023-04-24T05:57:01;12.73;;;6.32;;
28605;SDS011;46498;49.968;7.754;2023-04-24T06:02:28;11.60;;;6.35;;
28605;SDS011;46498;49.968;7.754;2023-04-24T06:07:33;13.88;;;5.85;;
28605;SDS011;46498;49.968;7.754;2023-04-24T06:12:37;7.65;;;4.85;;
28605;SDS011;46498;49.968;7.754;2023-04-24T06:17:43;11.20;;;4.10;;
28605;SDS011;46498;49.968;7.754;2023-04-24T06:22:45;8.10;;;3.60;;
28605;SDS011;46498;49.968;7.754;2023-04-24T06:27:46;6.90;;;3.42;;
28605;SDS011;46498;49.968;7.754;2023-04-24T06:32:47;5.05;;;3.22;;
28605;SDS011;46498;49.968;7.754;2023-04-24T06:37:49;7.05;;;3.83;;
28605;SDS011;46498;49.968;7.754;2023-04-24T06:42:50;5.53;;;2.58;;
28605;SDS011;46498;49.968;7.754;2023-04-24T06:47:55;6.95;;;3.65;;
28605;SDS011;46498;49.968;7.754;2023-04-24T06:52:57;4.62;;;3.03;;
28605;SDS011;46498;49.968;7.754;2023-04-24T06:57:58;5.35;;;3.25;;
28605;SDS011;46498;49.968;7.754;2023-04-24T07:02:59;8.13;;;3.28;;
28605;SDS011;46498;49.968;7.754;2023-04-24T07:08:01;9.02;;;4.15;;
28605;SDS011;46498;49.968;7.754;2023-04-24T07:13:02;6.53;;;3.97;;
28605;SDS011;46498;49.968;7.754;2023-04-24T07:18:03;9.95;;;4.68;;
28605;SDS011;46498;49.968;7.754;2023-04-24T07:23:06;6.85;;;4.22;;
28605;SDS011;46498;49.968;7.754;2023-04-24T07:28:07;7.93;;;4.47;;
28605;SDS011;46498;49.968;7.754;2023-04-24T07:33:08;8.35;;;4.90;;
28605;SDS011;46498;49.968;7.754;2023-04-24T07:38:09;6.37;;;3.83;;
28605;SDS011;46498;49.968;7.754;2023-04-24T07:43:10;8.25;;;4.30;;
28605;SDS011;46498;49.968;7.754;2023-04-24T07:48:11;5.90;;;3.35;;
28605;SDS011;46498;49.968;7.754;2023-04-24T07:53:14;4.97;;;3.30;;
28605;SDS011;46498;49.968;7.754;2023-04-24T07:58:15;6.20;;;3.10;;
28605;SDS011;46498;49.968;7.754;2023-04-24T08:03:16;5.62;;;3.28;;
28605;SDS011;46498;49.968;7.754;2023-04-24T08:08:21;6.72;;;3.58;;
28605;SDS011;46498;49.968;7.754;2023-04-24T08:13:22;7.43;;;3.15;;
28605;SDS011;46498;49.968;7.754;2023-04-24T08:18:23;9.93;;;3.37;;
28605;SDS011;46498;49.968;7.754;2023-04-24T08:23:24;6.32;;;3.62;;
28605;SDS011;46498;49.968;7.754;2023-04-24T08:28:25;4.70;;;2.95;;
28605;SDS011;46498;49.968;7.754;2023-04-24T08:33:26;8.35;;;3.40;;
28605;SDS011;46498;49.968;7.754;2023-04-24T08:38:27;4.53;;;2.90;;
28605;SDS011;46498;49.968;7.754;2023-04-24T08:43:28;5.45;;;2.62;;
28605;SDS011;46498;49.968;7.754;2023-04-24T08:48:30;3.95;;;2.15;;
28605;SDS011;46498;49.968;7.754;2023-04-24T08:53:35;4.18;;;2.53;;
28605;SDS011;46498;49.968;7.754;2023-04-24T08:58:37;3.87;;;2.30;;
28605;SDS011;46498;49.968;7.754;2023-04-24T09:03:38;4.35;;;1.90;;
28605;SDS011;46498;49.968;7.754;2023-04-24T09:08:40;2.55;;;2.10;;
28605;SDS011;46498;49.968;7.754;2023-04-24T09:13:43;1.83;;;1.50;;
28605;SDS011;46498;49.968;7.754;2023-04-24T09:18:46;5.25;;;1.90;;
28605;SDS011;46498;49.968;7.754;2023-04-24T09:23:47;3.87;;;2.10;;
28605;SDS011;46498;49.968;7.754;2023-04-24T09:28:59;3.67;;;2.17;;
28605;SDS011;46498;49.968;7.754;2023-04-24T09:34:01;3.95;;;1.45;;
28605;SDS011;46498;49.968;7.754;2023-04-24T09:39:09;3.30;;;1.90;;
28605;SDS011;46498;49.968;7.754;2023-04-24T09:44:13;3.03;;;1.67;;
28605;SDS011;46498;49.968;7.754;2023-04-24T09:49:25;2.65;;;1.70;;
28605;SDS011;46498;49.968;7.754;2023-04-24T09:54:33;3.72;;;1.95;;
28605;SDS011;46498;49.968;7.754;2023-04-24T09:59:41;3.03;;;1.70;;
28605;SDS011;46498;49.968;7.754;2023-04-24T10:04:54;4.35;;;2.30;;
28605;SDS011;46498;49.968;7.754;2023-04-24T10:09:57;6.30;;;2.47;;
28605;SDS011;46498;49.968;7.754;2023-04-24T10:20:03;5.18;;;2.67;;
28605;SDS011;46498;49.968;7.754;2023-04-24T10:25:07;6.93;;;2.55;;
28605;SDS011;46498;49.968;7.754;2023-04-24T10:30:09;3.92;;;2.35;;
28605;SDS011;46498;49.968;7.754;2023-04-24T10:35:13;6.15;;;2.90;;
28605;SDS011;46498;49.968;7.754;2023-04-24T10:40:17;4.47;;;3.03;;
28605;SDS011;46498;49.968;7.754;2023-04-24T10:45:20;5.70;;;3.22;;
28605;SDS011;46498;49.968;7.754;2023-04-24T10:50:22;4.57;;;3.12;;
28605;SDS011;46498;49.968;7.754;2023-04-24T11:01:49;6.22;;;2.70;;
28605;SDS011;46498;49.968;7.754;2023-04-24T11:06:57;5.30;;;3.00;;
28605;SDS011;46498;49.968;7.754;2023-04-24T11:12:08;5.35;;;2.67;;
28605;SDS011;46498;49.968;7.754;2023-04-24T11:17:26;5.95;;;3.37;;
28605;SDS011;46498;49.968;7.754;2023-04-24T11:22:29;7.93;;;3.33;;
28605;SDS011;46498;49.968;7.754;2023-04-24T11:28:02;7.37;;;3.20;;
28605;SDS011;46498;49.968;7.754;2023-04-24T11:33:05;4.55;;;2.62;;
28605;SDS011;46498;49.968;7.754;2023-04-24T11:38:06;6.25;;;3.08;;
28605;SDS011;46498;49.968;7.754;2023-04-24T11:43:25;8.38;;;3.40;;
28605;SDS011;46498;49.968;7.754;2023-04-24T11:48:26;4.50;;;3.08;;
28605;SDS011;46498;49.968;7.754;2023-04-24T11:53:26;7.85;;;3.67;;
28605;SDS011;46498;49.968;7.754;2023-04-24T11:58:27;7.93;;;4.07;;
28605;SDS011;46498;49.968;7.754;2023-04-24T12:03:28;11.55;;;4.32;;
28605;SDS011;46498;49.968;7.754;2023-04-24T12:08:29;10.55;;;4.47;;
28605;SDS011;46498;49.968;7.754;2023-04-24T12:13:30;8.45;;;4.05;;
28605;SDS011;46498;49.968;7.754;2023-04-24T12:18:31;6.68;;;3.92;;
28605;SDS011;46498;49.968;7.754;2023-04-24T12:23:35;8.02;;;3.92;;
28605;SDS011;46498;49.968;7.754;2023-04-24T12:28:39;9.68;;;4.32;;
28605;SDS011;46498;49.968;7.754;2023-04-24T12:33:42;11.00;;;4.53;;
28605;SDS011;46498;49.968;7.754;2023-04-24T12:38:47;10.05;;;5.15;;
28605;SDS011;46498;49.968;7.754;2023-04-24T12:43:53;11.15;;;5.30;;
28605;SDS011;46498;49.968;7.754;2023-04-24T12:48:56;10.65;;;4.72;;
28605;SDS011;46498;49.968;7.754;2023-04-24T12:53:59;10.57;;;4.68;;
28605;SDS011;46498;49.968;7.754;2023-04-24T12:58:59;10.77;;;4.25;;
28605;SDS011;46498;49.968;7.754;2023-04-24T13:04:00;6.72;;;3.95;;
28605;SDS011;46498;49.968;7.754;2023-04-24T13:09:01;9.70;;;3.87;;
28605;SDS011;46498;49.968;7.754;2023-04-24T13:14:03;11.02;;;4.10;;
28605;SDS011;46498;49.968;7.754;2023-04-24T13:19:05;7.07;;;4.15;;
28605;SDS011;46498;49.968;7.754;2023-04-24T13:24:05;10.05;;;5.07;;
28605;SDS011;46498;49.968;7.754;2023-04-24T13:29:08;7.82;;;4.03;;
28605;SDS011;46498;49.968;7.754;2023-04-24T13:34:09;10.75;;;4.30;;
28605;SDS011;46498;49.968;7.754;2023-04-24T13:39:10;9.75;;;4.80;;
28605;SDS011;46498;49.968;7.754;2023-04-24T13:44:11;9.13;;;4.55;;
28605;SDS011;46498;49.968;7.754;2023-04-24T13:49:12;9.00;;;4.75;;
28605;SDS011;46498;49.968;7.754;2023-04-24T13:54:14;12.50;;;4.80;;
28605;SDS011;46498;49.968;7.754;2023-04-24T13:59:15;9.70;;;4.37;;
28605;SDS011;46498;49.968;7.754;2023-04-24T14:04:16;12.40;;;5.32;;
28605;SDS011;46498;49.968;7.754;2023-04-24T14:09:17;6.60;;;4.45;;
28605;SDS011;46498;49.968;7.754;2023-04-24T14:14:18;7.18;;;4.12;;
28605;SDS011;46498;49.968;7.754;2023-04-24T14:19:18;8.27;;;4.00;;
28605;SDS011;46498;49.968;7.754;2023-04-24T14:24:19;10.73;;;4.80;;
28605;SDS011;46498;49.968;7.754;2023-04-24T14:29:20;7.87;;;3.75;;
28605;SDS011;46498;49.968;7.754;2023-04-24T14:34:21;11.88;;;4.97;;
28605;SDS011;46498;49.968;7.754;2023-04-24T14:39:22;9.43;;;4.00;;
28605;SDS011;46498;49.968;7.754;2023-04-24T14:44:23;7.43;;;4.10;;
28605;SDS011;46498;49.968;7.754;2023-04-24T14:49:24;10.23;;;4.32;;
28605;SDS011;46498;49.968;7.754;2023-04-24T14:54:24;7.30;;;4.30;;
28605;SDS011;46498;49.968;7.754;2023-04-24T14:59:26;7.03;;;4.60;;
28605;SDS011;46498;49.968;7.754;2023-04-24T15:04:28;8.43;;;4.50;;
28605;SDS011;46498;49.968;7.754;2023-04-24T15:09:29;8.65;;;4.35;;
28605;SDS011;46498;49.968;7.754;2023-04-24T15:14:37;8.55;;;3.92;;
28605;SDS011;46498;49.968;7.754;2023-04-24T15:19:38;9.75;;;4.80;;
28605;SDS011;46498;49.968;7.754;2023-04-24T15:24:39;8.45;;;4.97;;
28605;SDS011;46498;49.968;7.754;2023-04-24T15:29:40;8.88;;;5.22;;
28605;SDS011;46498;49.968;7.754;2023-04-24T15:34:41;8.93;;;4.90;;
28605;SDS011;46498;49.968;7.754;2023-04-24T15:39:43;8.73;;;4.60;;
28605;SDS011;46498;49.968;7.754;2023-04-24T15:44:45;11.77;;;6.03;;
28605;SDS011;46498;49.968;7.754;2023-04-24T15:49:46;8.02;;;4.90;;
28605;SDS011;46498;49.968;7.754;2023-04-24T15:54:50;4.15;;;2.80;;
28605;SDS011;46498;49.968;7.754;2023-04-24T15:59:51;6.05;;;3.20;;
28605;SDS011;46498;49.968;7.754;2023-04-24T16:04:52;5.78;;;3.65;;
28605;SDS011;46498;49.968;7.754;2023-04-24T16:09:54;6.00;;;3.55;;
28605;SDS011;46498;49.968;7.754;2023-04-24T16:14:55;5.15;;;3.58;;
28605;SDS011;46498;49.968;7.754;2023-04-24T16:19:56;7.87;;;3.65;;
28605;SDS011;46498;49.968;7.754;2023-04-24T16:24:57;9.95;;;3.85;;
28605;SDS011;46498;49.968;7.754;2023-04-24T16:29:58;5.72;;;3.72;;
28605;SDS011;46498;49.968;7.754;2023-04-24T16:34:59;6.55;;;3.95;;
28605;SDS011;46498;49.968;7.754;2023-04-24T16:40:03;6.72;;;3.40;;
28605;SDS011;46498;49.968;7.754;2023-04-24T16:45:10;9.40;;;4.65;;
28605;SDS011;46498;49.968;7.754;2023-04-24T16:50:11;12.40;;;4.82;;
28605;SDS011;46498;49.968;7.754;2023-04-24T16:55:12;10.57;;;5.12;;
28605;SDS011;46498;49.968;7.754;2023-04-24T17:00:13;7.82;;;4.72;;
28605;SDS011;46498;49.968;7.754;2023-04-24T17:05:15;13.65;;;6.03;;
28605;SDS011;46498;49.968;7.754;2023-04-24T17:10:20;11.07;;;6.32;;
28605;SDS011;46498;49.968;7.754;2023-04-24T17:15:22;9.85;;;5.37;;
28605;SDS011;46498;49.968;7.754;2023-04-24T17:20:22;14.05;;;6.18;;
28605;SDS011;46498;49.968;7.754;2023-04-24T17:25:24;8.23;;;5.57;;
28605;SDS011;46498;49.968;7.754;2023-04-24T17:30:25;11.73;;;6.15;;
28605;SDS011;46498;49.968;7.754;2023-04-24T17:35:26;9.90;;;5.87;;
28605;SDS011;46498;49.968;7.754;2023-04-24T17:40:27;7.80;;;5.07;;
28605;SDS011;46498;49.968;7.754;2023-04-24T17:45:28;10.85;;;6.25;;
28605;SDS011;46498;49.968;7.754;2023-04-24T17:50:29;10.93;;;6.50;;
28605;SDS011;46498;49.968;7.754;2023-04-24T17:55:30;29.42;;;17.52;;
28605;SDS011;46498;49.968;7.754;2023-04-24T18:00:31;17.62;;;10.73;;
28605;SDS011;46498;49.968;7.754;2023-04-24T18:05:34;14.93;;;7.97;;
28605;SDS011;46498;49.968;7.754;2023-04-24T18:10:37;15.65;;;9.93;;
28605;SDS011;46498;49.968;7.754;2023-04-24T18:15:38;25.45;;;15.38;;
28605;SDS011;46498;49.968;7.754;2023-04-24T18:20:42;47.60;;;27.20;;
28605;SDS011;46498;49.968;7.754;2023-04-24T18:25:44;47.90;;;30.15;;
28605;SDS011;46498;49.968;7.754;2023-04-24T18:30:45;22.90;;;12.68;;
28605;SDS011;46498;49.968;7.754;2023-04-24T18:35:47;18.90;;;10.90;;
28605;SDS011;46498;49.968;7.754;2023-04-24T18:40:47;19.00;;;8.85;;
28605;SDS011;46498;49.968;7.754;2023-04-24T18:45:48;12.98;;;7.72;;
28605;SDS011;46498;49.968;7.754;2023-04-24T18:50:49;14.30;;;7.87;;
28605;SDS011;46498;49.968;7.754;2023-04-24T18:55:50;9.95;;;6.30;;
28605;SDS011;46498;49.968;7.754;2023-04-24T19:00:52;7.80;;;4.70;;
28605;SDS011;46498;49.968;7.754;2023-04-24T19:05:53;8.45;;;5.12;;
28605;SDS011;46498;49.968;7.754;2023-04-24T19:10:54;9.63;;;5.70;;
28605;SDS011;46498;49.968;7.754;2023-04-24T19:15:55;10.48;;;6.03;;
28605;SDS011;46498;49.968;7.754;2023-04-24T19:20:56;9.70;;;5.75;;
28605;SDS011;46498;49.968;7.754;2023-04-24T19:25:59;7.87;;;5.32;;
28605;SDS011;46498;49.968;7.754;2023-04-24T19:31:00;10.45;;;5.53;;
28605;SDS011;46498;49.968;7.754;2023-04-24T19:36:01;8.98;;;5.85;;
28605;SDS011;46498;49.968;7.754;2023-04-24T19:41:02;7.85;;;5.68;;
28605;SDS011;46498;49.968;7.754;2023-04-24T19:46:03;8.93;;;5.43;;
28605;SDS011;46498;49.968;7.754;2023-04-24T19:51:04;13.73;;;6.35;;
28605;SDS011;46498;49.968;7.754;2023-04-24T19:56:06;9.45;;;6.05;;
28605;SDS011;46498;49.968;7.754;2023-04-24T20:01:07;11.35;;;6.78;;
28605;SDS011;46498;49.968;7.754;2023-04-24T20:06:07;11.68;;;6.65;;
28605;SDS011;46498;49.968;7.754;2023-04-24T20:11:08;11.65;;;7.03;;
28605;SDS011;46498;49.968;7.754;2023-04-24T20:16:09;10.65;;;6.62;;
28605;SDS011;46498;49.968;7.754;2023-04-24T20:21:12;14.87;;;6.22;;
28605;SDS011;46498;49.968;7.754;2023-04-24T20:26:13;12.77;;;7.00;;
28605;SDS011;46498;49.968;7.754;2023-04-24T20:31:14;11.73;;;6.12;;
28605;SDS011;46498;49.968;7.754;2023-04-24T20:36:15;9.40;;;5.78;;
28605;SDS011;46498;49.968;7.754;2023-04-24T20:41:18;6.78;;;4.30;;
28605;SDS011;46498;49.968;7.754;2023-04-24T20:46:19;8.10;;;4.95;;
28605;SDS011;46498;49.968;7.754;2023-04-24T20:51:21;10.73;;;3.90;;
28605;SDS011;46498;49.968;7.754;2023-04-24T20:56:22;5.40;;;3.35;;
28605;SDS011;46498;49.968;7.754;2023-04-24T21:01:24;4.05;;;2.35;;
28605;SDS011;46498;49.968;7.754;2023-04-24T21:06:25;4.97;;;3.30;;
28605;SDS011;46498;49.968;7.754;2023-04-24T21:11:26;7.72;;;3.58;;
28605;SDS011;46498;49.968;7.754;2023-04-24T21:16:26;7.95;;;3.50;;
28605;SDS011;46498;49.968;7.754;2023-04-24T21:21:28;4.57;;;2.97;;
28605;SDS011;46498;49.968;7.754;2023-04-24T21:26:29;5.07;;;3.12;;
28605;SDS011;46498;49.968;7.754;2023-04-24T21:31:30;8.32;;;4.57;;
28605;SDS011;46498;49.968;7.754;2023-04-24T21:36:31;6.97;;;2.60;;
28605;SDS011;46498;49.968;7.754;2023-04-24T21:41:33;6.53;;;3.20;;
28605;SDS011;46498;49.968;7.754;2023-04-24T21:46:33;7.05;;;3.90;;
28605;SDS011;46498;49.968;7.754;2023-04-24T21:51:34;8.13;;;4.47;;
28605;SDS011;46498;49.968;7.754;2023-04-24T21:56:35;5.97;;;3.53;;
28605;SDS011;46498;49.968;7.754;2023-04-24T22:01:36;5.47;;;3.50;;
28605;SDS011;46498;49.968;7.754;2023-04-24T22:06:37;7.87;;;4.60;;
28605;SDS011;46498;49.968;7.754;2023-04-24T22:11:38;8.75;;;3.83;;
28605;SDS011;46498;49.968;7.754;2023-04-24T22:16:41;6.77;;;3.93;;
28605;SDS011;46498;49.968;7.754;2023-04-24T22:21:42;6.68;;;4.50;;
28605;SDS011;46498;49.968;7.754;2023-04-24T22:26:43;6.90;;;4.90;;
28605;SDS011;46498;49.968;7.754;2023-04-24T22:31:45;8.10;;;5.53;;
28605;SDS011;46498;49.968;7.754;2023-04-24T22:36:46;11.27;;;6.90;;
28605;SDS011;46498;49.968;7.754;2023-04-24T22:41:46;13.60;;;6.80;;
28605;SDS011;46498;49.968;7.754;2023-04-24T22:46:47;11.70;;;7.07;;
28605;SDS011;46498;49.968;7.754;2023-04-24T22:51:51;15.30;;;7.85;;
28605;SDS011;46498;49.968;7.754;2023-04-24T22:56:52;12.95;;;7.32;;
28605;SDS011;46498;49.968;7.754;2023-04-24T23:01:53;13.57;;;7.22;;
28605;SDS011;46498;49.968;7.754;2023-04-24T23:06:54;12.35;;;7.10;;
28605;SDS011;46498;49.968;7.754;2023-04-24T23:11:55;12.02;;;6.60;;
28605;SDS011;46498;49.968;7.754;2023-04-24T23:16:57;10.60;;;7.07;;
28605;SDS011;46498;49.968;7.754;2023-04-24T23:21:58;11.98;;;7.32;;
28605;SDS011;46498;49.968;7.754;2023-04-24T23:26:59;10.32;;;6.50;;
28605;SDS011;46498;49.968;7.754;2023-04-24T23:32:01;12.10;;;7.50;;
28605;SDS011;46498;49.968;7.754;2023-04-24T23:37:03;14.60;;;7.37;;
28605;SDS011;46498;49.968;7.754;2023-04-24T23:42:04;12.02;;;7.30;;
28605;SDS011;46498;49.968;7.754;2023-04-24T23:47:04;11.18;;;6.72;;
28605;SDS011;46498;49.968;7.754;2023-04-24T23:52:05;11.23;;;6.90;;
28605;SDS011;46498;49.968;7.754;2023-04-24T23:57:06;14.30;;;7.20;;
